Time;durP1;ratioP1;P1;durP2;ratioP2;P2;SDS_P1;SDS_P2;PMS_P1;PMS_P2;Temp;Humidity;BMP_temperature;BMP_pressure;BME280_temperature;BME280_humidity;BME280_pressure;Samples;Min_cycle;Max_cycle;Signal;HPM_P1;HPM_P2
2022/04/03 00:00:45;;;;;;;;;;;;;;;26.33;27.49;99609.19;5019223;28;1072;-40
2022/04/03 00:03:11;;;;;;;;;;;;;;;26.35;27.41;99609.81;5019607;28;799;-41
2022/04/03 00:05:42;;;;;;;;;;;;;;;26.36;27.18;99606.91;5023417;28;911;-39
2022/04/03 00:08:07;;;;;;;;;;;;;;;26.36;27.40;99598.03;5019174;28;1961;-38
2022/04/03 00:10:33;;;;;;;;;;;;;;;26.30;27.47;99591.53;5020296;28;836;-40
2022/04/03 00:12:58;;;;;;;;;;;;;;;26.23;27.47;99580.75;5018602;28;835;-40
2022/04/03 00:15:23;;;;;;;;;;;;;;;26.27;27.39;99587.41;5018968;28;866;-40
2022/04/03 00:17:49;;;;;;;;;;;;;;;26.30;27.25;99591.53;5019673;28;814;-40
2022/04/03 00:20:14;;;;;;;;;;;;;;;26.29;27.29;99600.69;5019227;28;777;-40
2022/04/03 00:22:39;;;;;;;;;;;;;;;26.27;27.25;99598.19;5019045;28;905;-40
2022/04/03 00:25:05;;;;;;;;;;;;;;;26.21;27.23;99590.91;5024718;28;830;-40
2022/04/03 00:27:30;;;;;;;;;;;;;;;26.25;26.91;99585.94;5019088;28;1961;-40
2022/04/03 00:29:56;;;;;;;;;;;;;;;26.23;27.23;99596.94;5018520;28;889;-40
2022/04/03 00:32:21;;;;;;;;;;;;;;;26.27;27.14;99616.22;5022794;28;814;-40
2022/04/03 00:34:47;;;;;;;;;;;;;;;26.41;27.05;99619.78;5018548;28;861;-40
2022/04/03 00:37:12;;;;;;;;;;;;;;;26.44;27.27;99626.63;5018672;28;1162;-38
2022/04/03 00:39:37;;;;;;;;;;;;;;;26.12;27.47;99627.19;5022881;28;757;-39
2022/04/03 00:42:05;;;;;;;;;;;;;;;26.01;27.44;99629.41;5018402;28;845;-40
2022/04/03 00:44:30;;;;;;;;;;;;;;;26.23;27.33;99623.03;5016945;28;1103;-39
2022/04/03 00:46:55;;;;;;;;;;;;;;;26.14;27.49;99635.91;5017937;28;1911;-39
2022/04/03 00:49:21;;;;;;;;;;;;;;;26.20;27.29;99651.25;5028705;28;1318;-36
2022/04/03 00:51:46;;;;;;;;;;;;;;;25.94;27.40;99647.44;5026035;28;807;-40
2022/04/03 00:54:12;;;;;;;;;;;;;;;26.21;27.39;99634.03;5022715;28;908;-39
2022/04/03 00:56:37;;;;;;;;;;;;;;;25.90;27.85;99595.00;5022175;28;869;-40
2022/04/03 00:59:03;;;;;;;;;;;;;;;25.94;27.59;99603.50;5035031;28;869;-39
2022/04/03 01:01:28;;;;;;;;;;;;;;;25.95;27.66;99600.59;5037496;28;820;-39
2022/04/03 01:03:53;;;;;;;;;;;;;;;25.94;27.50;99585.47;5037577;28;739;-40
2022/04/03 01:06:18;;;;;;;;;;;;;;;25.87;27.37;99596.25;5037525;28;881;-40
2022/04/03 01:08:44;;;;;;;;;;;;;;;25.90;27.33;99586.91;5034640;28;1922;-38
2022/04/03 01:11:11;;;;;;;;;;;;;;;25.82;27.58;99587.94;5024039;28;804;-39
2022/04/03 01:13:43;;;;;;;;;;;;;;;25.84;27.41;99598.50;5016673;28;825;-38
2022/04/03 01:16:09;;;;;;;;;;;;;;;25.86;27.45;99609.91;5017884;28;893;-40
2022/04/03 01:18:34;;;;;;;;;;;;;;;25.87;27.18;99592.69;5018011;28;774;-39
2022/04/03 01:21:00;;;;;;;;;;;;;;;25.87;27.44;99588.16;5018302;28;798;-40
2022/04/03 01:23:25;;;;;;;;;;;;;;;25.85;27.32;99589.38;5020367;28;1041;-39
2022/04/03 01:25:50;;;;;;;;;;;;;;;25.88;27.55;99575.50;5022587;28;779;-40
2022/04/03 01:28:16;;;;;;;;;;;;;;;25.90;27.36;99584.22;5017671;28;1973;-39
2022/04/03 01:30:41;;;;;;;;;;;;;;;25.91;27.43;99588.56;5017980;28;820;-40
2022/04/03 01:33:06;;;;;;;;;;;;;;;26.03;27.29;99583.41;5018268;28;825;-40
2022/04/03 01:35:31;;;;;;;;;;;;;;;26.03;27.49;99580.72;5023966;28;982;-40
2022/04/03 01:37:57;;;;;;;;;;;;;;;26.10;27.39;99583.41;5017364;28;1018;-39
2022/04/03 01:40:22;;;;;;;;;;;;;;;26.13;27.24;99575.75;5020733;28;845;-38
2022/04/03 01:42:47;;;;;;;;;;;;;;;26.19;27.23;99566.03;5017891;28;836;-40
2022/04/03 01:45:13;;;;;;;;;;;;;;;26.15;27.08;99571.00;5017469;28;778;-39
2022/04/03 01:47:38;;;;;;;;;;;;;;;26.22;26.96;99579.09;5020485;28;1973;-40
2022/04/03 01:50:04;;;;;;;;;;;;;;;26.32;26.51;99578.69;5017535;28;947;-40
2022/04/03 01:52:29;;;;;;;;;;;;;;;26.32;26.38;99567.06;5017452;28;788;-39
2022/04/03 01:54:54;;;;;;;;;;;;;;;26.38;26.08;99564.41;5018046;28;912;-40
2022/04/03 01:57:20;;;;;;;;;;;;;;;26.52;26.18;99559.88;5017365;28;919;-40
2022/04/03 01:59:45;;;;;;;;;;;;;;;26.58;26.10;99560.03;5019792;28;779;-41
2022/04/03 02:02:11;;;;;;;;;;;;;;;26.56;26.10;99560.25;5020691;28;832;-38
2022/04/03 02:04:37;;;;;;;;;;;;;;;26.63;26.12;99555.69;5017204;28;834;-38
2022/04/03 02:07:03;;;;;;;;;;;;;;;26.60;25.86;99560.66;5017266;28;1898;-40
2022/04/03 02:09:30;;;;;;;;;;;;;;;26.52;26.02;99559.03;5021252;28;826;-41
2022/04/03 02:11:57;;;;;;;;;;;;;;;26.64;26.04;99564.63;5017196;28;835;-40
2022/04/03 02:14:24;;;;;;;;;;;;;;;26.65;25.96;99550.94;5019383;28;877;-40
2022/04/03 02:16:51;;;;;;;;;;;;;;;26.54;25.80;99556.97;5017501;28;831;-40
2022/04/03 02:19:16;;;;;;;;;;;;;;;26.54;26.16;99559.66;5017713;28;794;-38
2022/04/03 02:21:42;;;;;;;;;;;;;;;26.28;26.23;99558.56;5016945;28;877;-40
2022/04/03 02:24:07;;;;;;;;;;;;;;;26.32;26.54;99556.28;5020799;28;869;-40
2022/04/03 02:26:33;;;;;;;;;;;;;;;26.25;26.73;99556.28;5024140;28;825;-40
2022/04/03 02:28:58;;;;;;;;;;;;;;;26.34;26.23;99548.84;5016686;28;1901;-38
2022/04/03 02:31:23;;;;;;;;;;;;;;;26.27;26.51;99555.06;5016758;28;1016;-40
2022/04/03 02:33:49;;;;;;;;;;;;;;;26.30;26.26;99553.78;5016893;28;865;-39
2022/04/03 02:36:14;;;;;;;;;;;;;;;26.35;26.43;99553.22;5016560;28;878;-41
2022/04/03 02:38:39;;;;;;;;;;;;;;;26.37;26.12;99553.84;5020272;28;1263;-39
2022/04/03 02:41:04;;;;;;;;;;;;;;;26.31;26.38;99555.44;5031657;28;1116;-40
2022/04/03 02:43:30;;;;;;;;;;;;;;;26.35;26.40;99564.00;5035593;28;852;-39
2022/04/03 02:45:55;;;;;;;;;;;;;;;26.37;26.27;99565.47;5035196;28;865;-38
2022/04/03 02:48:20;;;;;;;;;;;;;;;26.40;26.26;99573.13;5035790;28;1909;-38
2022/04/03 02:50:46;;;;;;;;;;;;;;;26.36;26.42;99565.66;5035007;28;766;-39
2022/04/03 02:53:11;;;;;;;;;;;;;;;26.34;26.70;99560.44;5018861;28;920;-36
2022/04/03 02:55:36;;;;;;;;;;;;;;;26.47;26.03;99558.81;5023136;28;1407;-39
2022/04/03 02:58:01;;;;;;;;;;;;;;;26.41;26.15;99572.09;5016298;28;924;-37
2022/04/03 03:00:27;;;;;;;;;;;;;;;26.50;25.83;99571.88;5023622;28;1263;-42
2022/04/03 03:02:52;;;;;;;;;;;;;;;25.74;25.50;99575.44;5017003;28;750;-42
2022/04/03 03:05:17;;;;;;;;;;;;;;;25.40;25.91;99566.41;5017925;28;981;-43
2022/04/03 03:07:45;;;;;;;;;;;;;;;25.49;26.20;99573.25;5016413;28;1898;-43
2022/04/03 03:10:13;;;;;;;;;;;;;;;24.97;26.67;99576.31;5021622;28;903;-43
2022/04/03 03:12:38;;;;;;;;;;;;;;;24.62;26.94;99573.56;5015909;28;830;-43
2022/04/03 03:15:04;;;;;;;;;;;;;;;24.36;27.23;99575.00;5016485;28;870;-41
2022/04/03 03:17:29;;;;;;;;;;;;;;;24.14;27.44;99580.34;5021502;28;842;-42
2022/04/03 03:19:54;;;;;;;;;;;;;;;23.66;27.40;99595.09;5016349;28;851;-43
2022/04/03 03:22:20;;;;;;;;;;;;;;;23.40;27.38;99599.09;5016544;28;873;-41
2022/04/03 03:24:45;;;;;;;;;;;;;;;23.45;27.52;99607.44;5019619;28;901;-43
2022/04/03 03:27:11;;;;;;;;;;;;;;;23.21;27.92;99593.25;5015275;28;1891;-41
2022/04/03 03:29:36;;;;;;;;;;;;;;;23.17;27.91;99608.06;5029256;28;859;-41
2022/04/03 03:32:02;;;;;;;;;;;;;;;21.90;29.60;99603.84;5016404;28;1091;-41
2022/04/03 03:34:27;;;;;;;;;;;;;;;21.95;29.78;99614.88;5019433;28;1189;-41
2022/04/03 03:36:52;;;;;;;;;;;;;;;21.59;30.39;99613.47;5023480;28;1097;-38
2022/04/03 03:39:17;;;;;;;;;;;;;;;22.72;28.70;99619.56;5016947;28;1169;-39
2022/04/03 03:41:43;;;;;;;;;;;;;;;23.16;27.98;99612.59;5019354;28;822;-37
2022/04/03 03:44:10;;;;;;;;;;;;;;;23.56;27.59;99606.97;5017884;28;734;-39
2022/04/03 03:46:41;;;;;;;;;;;;;;;23.70;27.43;99607.97;5016417;28;849;-39
2022/04/03 03:49:07;;;;;;;;;;;;;;;23.81;27.27;99606.66;5020092;28;1981;-34
2022/04/03 03:51:33;;;;;;;;;;;;;;;24.01;27.17;99603.34;5027970;28;1355;-35
2022/04/03 03:53:58;;;;;;;;;;;;;;;23.57;27.20;99490.50;5036378;28;1406;-38
2022/04/03 03:56:23;;;;;;;;;;;;;;;24.61;27.82;99604.16;5030431;28;1632;-39
2022/04/03 03:58:48;;;;;;;;;;;;;;;24.65;26.95;99616.19;5029063;28;835;-43
2022/04/03 04:01:14;;;;;;;;;;;;;;;24.30;27.00;99612.38;5030388;28;1327;-39
2022/04/03 04:03:39;;;;;;;;;;;;;;;24.33;27.09;99614.66;5026569;28;1485;-42
2022/04/03 04:06:05;;;;;;;;;;;;;;;24.54;27.23;99617.56;5021077;28;862;-40
2022/04/03 04:08:30;;;;;;;;;;;;;;;24.46;27.59;99610.44;5029041;28;1898;-38
2022/04/03 04:10:57;;;;;;;;;;;;;;;24.42;27.69;99618.03;5023868;28;971;-40
2022/04/03 04:13:22;;;;;;;;;;;;;;;24.43;27.68;99619.72;5027164;28;773;-38
2022/04/03 04:15:47;;;;;;;;;;;;;;;24.45;27.70;99615.00;5038553;28;842;-40
2022/04/03 04:18:12;;;;;;;;;;;;;;;24.49;27.88;99607.34;5024205;28;1132;-40
2022/04/03 04:20:39;;;;;;;;;;;;;;;24.48;27.87;99599.47;5019897;28;833;-42
2022/04/03 04:23:04;;;;;;;;;;;;;;;24.53;27.85;99597.06;5019564;28;831;-42
2022/04/03 04:25:31;;;;;;;;;;;;;;;24.53;27.93;99592.50;5021626;28;879;-40
2022/04/03 04:27:56;;;;;;;;;;;;;;;24.67;27.76;99600.69;5018524;28;1971;-42
2022/04/03 04:30:21;;;;;;;;;;;;;;;24.66;27.69;99604.38;5018611;28;1358;-40
2022/04/03 04:32:47;;;;;;;;;;;;;;;24.68;27.69;99610.41;5024806;28;1821;-41
2022/04/03 04:35:13;;;;;;;;;;;;;;;24.70;27.81;99603.84;5024660;28;1441;-40
2022/04/03 04:37:38;;;;;;;;;;;;;;;24.72;27.78;99605.47;5031388;28;1534;-40
2022/04/03 04:40:05;;;;;;;;;;;;;;;24.75;27.80;99607.78;5019729;28;1367;-41
2022/04/03 04:42:30;;;;;;;;;;;;;;;24.78;27.58;99621.69;5026392;28;1415;-41
2022/04/03 04:44:55;;;;;;;;;;;;;;;24.80;27.65;99625.00;5020181;28;773;-42
2022/04/03 04:47:21;;;;;;;;;;;;;;;24.81;27.64;99628.50;5019551;28;1889;-40
2022/04/03 04:49:46;;;;;;;;;;;;;;;24.82;27.52;99630.19;5028719;28;805;-39
2022/04/03 04:52:12;;;;;;;;;;;;;;;24.84;27.45;99641.56;5037394;28;858;-40
2022/04/03 04:54:38;;;;;;;;;;;;;;;24.86;27.32;99649.47;5034488;28;927;-40
2022/04/03 04:57:03;;;;;;;;;;;;;;;25.05;27.13;99648.81;5021283;28;819;-40
2022/04/03 04:59:29;;;;;;;;;;;;;;;25.10;26.21;99640.16;5026122;28;1552;-40
2022/04/03 05:01:59;;;;;;;;;;;;;;;25.15;26.16;99645.78;5022888;28;1492;-40
2022/04/03 05:04:24;;;;;;;;;;;;;;;25.10;25.89;99650.06;5023875;28;1200;-38
2022/04/03 05:06:50;;;;;;;;;;;;;;;24.92;25.81;99643.34;5018373;28;1375;-40
2022/04/03 05:09:15;;;;;;;;;;;;;;;24.96;26.45;99641.91;5026108;28;1961;-40
2022/04/03 05:11:41;;;;;;;;;;;;;;;25.03;26.51;99636.56;5048592;28;1252;-40
2022/04/03 05:14:06;;;;;;;;;;;;;;;25.05;26.75;99629.13;5028147;28;1347;-40
2022/04/03 05:16:31;;;;;;;;;;;;;;;25.17;26.70;99629.44;5021134;28;1382;-40
2022/04/03 05:18:57;;;;;;;;;;;;;;;25.15;26.75;99618.03;5035980;28;1371;-41
2022/04/03 05:21:22;;;;;;;;;;;;;;;25.12;26.52;99621.94;5029179;28;1382;-41
2022/04/03 05:23:49;;;;;;;;;;;;;;;25.12;26.91;99621.94;5029665;28;1273;-41
2022/04/03 05:26:15;;;;;;;;;;;;;;;25.15;26.63;99620.72;5026052;28;1263;-40
2022/04/03 05:28:41;;;;;;;;;;;;;;;25.14;26.69;99616.38;5027255;28;1898;-40
2022/04/03 05:31:06;;;;;;;;;;;;;;;25.15;26.57;99629.63;5035500;28;1085;-40
2022/04/03 05:33:32;;;;;;;;;;;;;;;25.10;26.75;99629.38;5026090;28;790;-41
2022/04/03 05:35:57;;;;;;;;;;;;;;;25.14;26.36;99633.31;5031230;28;1446;-40
2022/04/03 05:38:23;;;;;;;;;;;;;;;25.20;26.43;99637.09;5018642;28;1021;-43
2022/04/03 05:40:48;;;;;;;;;;;;;;;25.28;26.02;99638.81;5023026;28;999;-42
2022/04/03 05:43:13;;;;;;;;;;;;;;;25.31;26.29;99641.94;5029171;28;1399;-40
2022/04/03 05:45:39;;;;;;;;;;;;;;;25.78;25.79;99644.06;5028814;28;1449;-40
2022/04/03 05:48:07;;;;;;;;;;;;;;;26.12;25.27;99643.34;5023549;28;1903;-39
2022/04/03 05:50:32;;;;;;;;;;;;;;;26.25;24.96;99643.38;5024883;28;1283;-41
2022/04/03 05:52:58;;;;;;;;;;;;;;;26.24;25.12;99652.47;5049821;28;1363;-41
2022/04/03 05:55:23;;;;;;;;;;;;;;;26.20;25.25;99653.09;5024976;28;846;-41
2022/04/03 05:57:49;;;;;;;;;;;;;;;26.43;24.78;99651.94;5022622;28;791;-40
2022/04/03 06:00:15;;;;;;;;;;;;;;;26.54;24.89;99654.03;5023640;28;793;-40
2022/04/03 06:02:54;;;;;;;;;;;;;;;26.46;24.70;99665.03;5017685;28;820;-42
2022/04/03 06:05:23;;;;;;;;;;;;;;;26.64;24.94;99654.44;5034644;28;862;-38
2022/04/03 06:07:49;;;;;;;;;;;;;;;26.96;24.84;99669.19;5036235;28;1903;-43
2022/04/03 06:10:14;;;;;;;;;;;;;;;28.10;23.07;99659.16;5028575;28;884;-41
2022/04/03 06:12:52;;;;;;;;;;;;;;;26.78;24.83;99666.09;5019048;28;829;-42
2022/04/03 06:15:17;;;;;;;;;;;;;;;26.46;25.35;99671.22;5026523;28;1227;-43
2022/04/03 06:17:42;;;;;;;;;;;;;;;26.27;25.36;99670.13;5024808;28;1108;-40
2022/04/03 06:20:08;;;;;;;;;;;;;;;26.09;25.78;99665.31;5023924;28;1591;-41
2022/04/03 06:22:33;;;;;;;;;;;;;;;26.12;25.77;99673.00;5020683;28;839;-43
2022/04/03 06:24:58;;;;;;;;;;;;;;;26.31;25.54;99684.03;5019950;28;888;-43
2022/04/03 06:27:24;;;;;;;;;;;;;;;26.65;25.02;99676.88;5018579;28;1898;-43
2022/04/03 06:29:49;;;;;;;;;;;;;;;26.86;24.68;99689.31;5036034;28;849;-43
2022/04/03 06:32:14;;;;;;;;;;;;;;;27.00;24.45;99679.38;5035302;28;864;-41
2022/04/03 06:34:39;;;;;;;;;;;;;;;27.13;24.29;99667.75;5035910;28;771;-41
2022/04/03 06:37:05;;;;;;;;;;;;;;;27.30;24.31;99680.81;5035687;28;858;-41
2022/04/03 06:39:30;;;;;;;;;;;;;;;27.42;23.97;99672.06;5029633;28;1298;-43
2022/04/03 06:41:55;;;;;;;;;;;;;;;27.41;23.80;99673.94;5023532;28;1441;-42
2022/04/03 06:44:21;;;;;;;;;;;;;;;27.51;23.66;99689.69;5026329;28;1239;-41
2022/04/03 06:46:46;;;;;;;;;;;;;;;27.42;23.76;99682.88;5024305;28;1227;-43
2022/04/03 06:49:11;;;;;;;;;;;;;;;27.48;23.57;99690.13;5035327;28;1910;-41
2022/04/03 06:51:36;;;;;;;;;;;;;;;27.38;24.04;99691.41;5035189;28;822;-43
2022/04/03 06:54:02;;;;;;;;;;;;;;;27.31;24.01;99695.16;5028786;28;888;-43
2022/04/03 06:56:27;;;;;;;;;;;;;;;27.47;23.62;99693.88;5028581;28;996;-42
2022/04/03 06:58:52;;;;;;;;;;;;;;;27.60;23.59;99704.66;5035531;28;818;-43
2022/04/03 07:01:18;;;;;;;;;;;;;;;27.56;23.87;99700.69;5027437;28;1390;-42
2022/04/03 07:03:45;;;;;;;;;;;;;;;27.70;23.52;99706.09;5020826;28;845;-43
2022/04/03 07:06:11;;;;;;;;;;;;;;;27.92;23.21;99709.34;5021198;28;793;-42
2022/04/03 07:08:36;;;;;;;;;;;;;;;28.47;22.75;99716.19;5017074;28;1898;-43
2022/04/03 07:11:01;;;;;;;;;;;;;;;28.44;22.91;99715.78;5020249;28;833;-43
2022/04/03 07:13:27;;;;;;;;;;;;;;;28.46;22.52;99716.41;5018064;28;866;-43
2022/04/03 07:15:52;;;;;;;;;;;;;;;28.19;22.57;99711.94;5016318;28;873;-43
2022/04/03 07:18:17;;;;;;;;;;;;;;;27.97;22.93;99709.56;5027037;28;1243;-43
2022/04/03 07:20:46;;;;;;;;;;;;;;;26.71;24.12;99595.09;5028506;28;919;-43
2022/04/03 07:23:11;;;;;;;;;;;;;;;28.13;23.13;99701.97;5019383;28;839;-44
2022/04/03 07:25:37;;;;;;;;;;;;;;;28.16;23.04;99716.97;5027006;28;980;-43
2022/04/03 07:28:02;;;;;;;;;;;;;;;28.31;22.77;99703.97;5024969;28;1906;-43
2022/04/03 07:30:27;;;;;;;;;;;;;;;28.35;23.10;99713.34;5020464;28;909;-43
2022/04/03 07:32:53;;;;;;;;;;;;;;;28.54;22.78;99721.56;5023031;28;830;-43
2022/04/03 07:35:18;;;;;;;;;;;;;;;28.90;22.22;99721.94;5019884;28;953;-43
2022/04/03 07:37:43;;;;;;;;;;;;;;;28.62;22.63;99725.88;5019776;28;1215;-43
2022/04/03 07:40:09;;;;;;;;;;;;;;;28.36;22.67;99727.72;5025034;28;840;-43
2022/04/03 07:42:35;;;;;;;;;;;;;;;28.31;22.88;99736.41;5019988;28;846;-44
2022/04/03 07:45:01;;;;;;;;;;;;;;;27.84;23.28;99734.72;5025758;28;1160;-43
2022/04/03 07:47:26;;;;;;;;;;;;;;;28.77;22.55;99744.50;5024218;28;1981;-43
2022/04/03 07:49:51;;;;;;;;;;;;;;;28.55;22.25;99739.44;5032905;28;818;-43
2022/04/03 07:52:17;;;;;;;;;;;;;;;27.81;23.12;99747.84;5019890;28;1261;-43
2022/04/03 07:54:42;;;;;;;;;;;;;;;27.85;23.47;99746.38;5030225;28;1410;-43
2022/04/03 07:57:07;;;;;;;;;;;;;;;28.40;22.86;99747.84;5027214;28;1334;-43
2022/04/03 07:59:33;;;;;;;;;;;;;;;29.39;21.56;99758.41;5036110;28;1442;-43
2022/04/03 08:01:59;;;;;;;;;;;;;;;28.30;23.07;99753.69;5021821;28;1378;-43
2022/04/03 08:04:24;;;;;;;;;;;;;;;28.25;23.44;99750.81;5027825;28;1260;-44
2022/04/03 08:06:49;;;;;;;;;;;;;;;28.29;23.17;99753.91;5033156;28;861;-43
2022/04/03 08:09:14;;;;;;;;;;;;;;;28.35;23.06;99753.91;5025627;28;2042;-43
2022/04/03 08:11:42;;;;;;;;;;;;;;;28.39;22.88;99758.88;5032007;28;1020;-44
2022/04/03 08:14:07;;;;;;;;;;;;;;;28.90;22.45;99753.56;5038294;28;972;-43
2022/04/03 08:16:33;;;;;;;;;;;;;;;29.34;21.91;99750.97;5038167;28;873;-43
2022/04/03 08:19:00;;;;;;;;;;;;;;;29.10;21.97;99750.75;5038074;28;770;-43
2022/04/03 08:21:25;;;;;;;;;;;;;;;28.66;22.71;99756.84;5037911;28;822;-43
2022/04/03 08:23:51;;;;;;;;;;;;;;;28.54;22.45;99753.19;5024495;28;840;-43
2022/04/03 08:26:17;;;;;;;;;;;;;;;28.28;22.88;99754.97;5027776;28;1232;-43
2022/04/03 08:28:42;;;;;;;;;;;;;;;28.03;22.85;99753.00;5018519;28;1890;-43
2022/04/03 08:31:08;;;;;;;;;;;;;;;28.30;22.84;99760.97;5025401;28;1512;-43
2022/04/03 08:33:33;;;;;;;;;;;;;;;28.69;22.18;99761.84;5027492;28;853;-43
2022/04/03 08:35:58;;;;;;;;;;;;;;;28.95;21.61;99762.72;5027450;28;823;-44
2022/04/03 08:38:23;;;;;;;;;;;;;;;29.01;21.75;99771.84;5037247;28;1044;-44
2022/04/03 08:40:49;;;;;;;;;;;;;;;28.96;21.80;99774.38;5023516;28;906;-43
2022/04/03 08:43:14;;;;;;;;;;;;;;;29.01;21.91;99769.13;5018368;28;934;-44
2022/04/03 08:45:39;;;;;;;;;;;;;;;28.99;22.17;99767.72;5032633;28;849;-44
2022/04/03 08:48:05;;;;;;;;;;;;;;;29.00;22.26;99772.06;5023487;28;1902;-43
2022/04/03 08:50:34;;;;;;;;;;;;;;;29.18;22.08;99772.13;5017427;28;877;-44
2022/04/03 08:53:01;;;;;;;;;;;;;;;28.96;21.96;99774.38;5018720;28;816;-43
2022/04/03 08:55:27;;;;;;;;;;;;;;;28.24;22.80;99771.59;5020433;28;828;-43
2022/04/03 08:57:52;;;;;;;;;;;;;;;28.44;22.58;99769.91;5018000;28;803;-43
2022/04/03 09:00:17;;;;;;;;;;;;;;;28.65;22.35;99768.72;5025272;28;1414;-43
2022/04/03 09:02:45;;;;;;;;;;;;;;;28.95;22.07;99776.25;5019435;28;1338;-44
2022/04/03 09:05:10;;;;;;;;;;;;;;;29.14;21.80;99775.50;5030986;28;1390;-43
2022/04/03 09:07:35;;;;;;;;;;;;;;;29.02;21.92;99792.47;5031956;28;1894;-43
2022/04/03 09:10:08;;;;;;;;;;;;;;;29.19;21.54;99797.34;5030429;28;1431;-44
2022/04/03 09:12:33;;;;;;;;;;;;;;;29.24;21.66;99792.09;5031617;28;1230;-44
2022/04/03 09:14:58;;;;;;;;;;;;;;;28.15;20.51;99790.97;5032724;28;1351;-44
2022/04/03 09:17:33;;;;;;;;;;;;;;;27.68;21.38;99800.00;5025852;28;1558;-43
2022/04/03 09:20:05;;;;;;;;;;;;;;;27.49;22.86;99800.66;5021767;28;1398;-43
2022/04/03 09:22:31;;;;;;;;;;;;;;;27.41;23.22;99800.84;5023105;28;1244;-43
2022/04/03 09:24:56;;;;;;;;;;;;;;;27.31;23.61;99793.16;5033997;28;1245;-43
2022/04/03 09:27:21;;;;;;;;;;;;;;;27.30;23.60;99794.22;5023823;28;1967;-43
2022/04/03 09:29:46;;;;;;;;;;;;;;;27.22;23.80;99787.16;5033365;28;1133;-43
2022/04/03 09:32:12;;;;;;;;;;;;;;;27.99;22.79;99793.13;5018859;28;717;-43
2022/04/03 09:34:38;;;;;;;;;;;;;;;28.38;22.14;99795.91;5021589;28;1355;-43
2022/04/03 09:37:06;;;;;;;;;;;;;;;28.87;21.73;99792.75;5022067;28;795;-43
2022/04/03 09:39:32;;;;;;;;;;;;;;;28.26;22.95;99786.78;5021959;28;1113;-43
2022/04/03 09:42:00;;;;;;;;;;;;;;;28.07;23.31;99801.00;5022834;28;1152;-43
2022/04/03 09:44:26;;;;;;;;;;;;;;;27.94;23.38;99793.78;5024343;28;1227;-42
2022/04/03 09:47:11;;;;;;;;;;;;;;;27.99;23.46;99795.84;5030531;28;1220;-43
2022/04/03 09:49:37;;;;;;;;;;;;;;;27.82;23.78;99793.59;5035569;28;1161;-43
2022/04/03 09:52:02;;;;;;;;;;;;;;;27.86;23.49;99799.41;5035189;28;1199;-43
2022/04/03 09:54:27;;;;;;;;;;;;;;;28.57;22.60;99801.44;5031568;28;1151;-44
2022/04/03 09:56:53;;;;;;;;;;;;;;;28.38;22.76;99795.09;5031234;28;1239;-43
2022/04/03 09:59:18;;;;;;;;;;;;;;;27.93;23.55;99793.94;5032405;28;1074;-43
2022/04/03 10:01:43;;;;;;;;;;;;;;;27.96;23.55;99793.56;5034436;28;1108;-44
2022/04/03 10:04:09;;;;;;;;;;;;;;;27.91;23.61;99804.16;5031635;28;1081;-43
2022/04/03 10:06:34;;;;;;;;;;;;;;;28.40;22.72;99812.75;5029685;28;1259;-43
2022/04/03 10:09:00;;;;;;;;;;;;;;;28.43;22.91;99828.56;5027334;28;1902;-43
2022/04/03 10:11:25;;;;;;;;;;;;;;;27.96;23.03;99824.09;5027551;28;1307;-42
2022/04/03 10:13:50;;;;;;;;;;;;;;;27.93;22.88;99819.13;5030095;28;1323;-43
2022/04/03 10:16:16;;;;;;;;;;;;;;;27.89;23.27;99819.75;5027811;28;1219;-43
2022/04/03 10:18:44;;;;;;;;;;;;;;;28.13;23.08;99823.66;5027043;28;1192;-43
2022/04/03 10:21:28;;;;;;;;;;;;;;;28.71;22.30;99818.47;5028119;28;1481;-43
2022/04/03 10:23:57;;;;;;;;;;;;;;;28.52;22.26;99817.50;5031905;28;985;-42
2022/04/03 10:26:22;;;;;;;;;;;;;;;28.10;22.82;99827.63;5034103;28;774;-41
2022/04/03 10:28:48;;;;;;;;;;;;;;;27.96;22.63;99821.41;5035607;28;1905;-41
2022/04/03 10:31:15;;;;;;;;;;;;;;;27.89;22.87;99833.28;5016289;28;977;-43
2022/04/03 10:33:40;;;;;;;;;;;;;;;28.40;22.60;99825.44;5016836;28;758;-43
2022/04/03 10:36:06;;;;;;;;;;;;;;;28.90;21.99;99829.38;5016896;28;1022;-43
2022/04/03 10:38:38;;;;;;;;;;;;;;;28.18;22.56;99836.53;5016407;28;1177;-41
2022/04/03 10:41:05;;;;;;;;;;;;;;;28.06;23.04;99836.38;5017128;28;731;-41
2022/04/03 10:43:31;;;;;;;;;;;;;;;27.95;23.39;99851.34;5020341;28;822;-43
2022/04/03 10:45:56;;;;;;;;;;;;;;;28.66;22.45;99832.63;5016268;28;820;-43
2022/04/03 10:48:21;;;;;;;;;;;;;;;28.48;22.85;99844.97;5016404;28;1910;-43
2022/04/03 10:51:05;;;;;;;;;;;;;;;28.24;23.09;99846.50;5016602;28;770;-41
2022/04/03 10:53:41;;;;;;;;;;;;;;;28.22;23.01;99838.59;5028035;28;840;-43
2022/04/03 10:56:10;;;;;;;;;;;;;;;28.32;22.91;99838.16;5023008;28;853;-43
2022/04/03 10:58:39;;;;;;;;;;;;;;;28.30;22.74;99832.13;5035160;28;830;-41
2022/04/03 11:01:04;;;;;;;;;;;;;;;28.43;22.74;99838.53;5035758;28;781;-43
2022/04/03 11:03:30;;;;;;;;;;;;;;;28.11;22.72;99845.47;5035241;28;754;-43
2022/04/03 11:05:55;;;;;;;;;;;;;;;28.28;22.78;99852.31;5035163;28;853;-44
2022/04/03 11:08:40;;;;;;;;;;;;;;;28.47;22.52;99843.34;5027880;28;1910;-44
2022/04/03 11:11:09;;;;;;;;;;;;;;;28.42;22.27;99845.00;5016506;28;763;-43
2022/04/03 11:13:34;;;;;;;;;;;;;;;28.60;22.23;99850.56;5018526;28;807;-43
2022/04/03 11:16:00;;;;;;;;;;;;;;;28.58;22.44;99846.38;5035041;28;818;-43
2022/04/03 11:18:26;;;;;;;;;;;;;;;28.85;22.29;99847.09;5035337;28;810;-43
2022/04/03 11:21:08;;;;;;;;;;;;;;;28.76;22.48;99842.97;5032547;28;822;-43
2022/04/03 11:23:37;;;;;;;;;;;;;;;28.89;22.37;99838.53;5016675;28;754;-42
2022/04/03 11:26:02;;;;;;;;;;;;;;;28.48;22.85;99842.28;5018518;28;734;-43
2022/04/03 11:28:28;;;;;;;;;;;;;;;28.35;22.65;99839.63;5022623;28;1981;-43
2022/04/03 11:30:53;;;;;;;;;;;;;;;28.45;22.46;99845.41;5032230;28;1183;-43
2022/04/03 11:33:19;;;;;;;;;;;;;;;28.79;22.15;99847.13;5028985;28;1529;-43
2022/04/03 11:35:46;;;;;;;;;;;;;;;28.75;22.29;99835.06;5028371;28;1275;-43
2022/04/03 11:38:11;;;;;;;;;;;;;;;28.89;22.00;99843.97;5028235;28;1199;-43
2022/04/03 11:40:38;;;;;;;;;;;;;;;29.13;21.83;99841.56;5019431;28;839;-43
2022/04/03 11:43:22;;;;;;;;;;;;;;;28.93;21.92;99842.47;5016161;28;865;-43
2022/04/03 11:46:00;;;;;;;;;;;;;;;28.49;22.03;99848.53;5018537;28;1208;-43
2022/04/03 11:48:29;;;;;;;;;;;;;;;28.99;21.80;99854.34;5026165;28;1906;-44
2022/04/03 11:51:03;;;;;;;;;;;;;;;29.32;21.26;99846.00;5030405;28;1252;-43
2022/04/03 11:53:28;;;;;;;;;;;;;;;29.38;21.40;99854.31;5034777;28;1398;-43
2022/04/03 11:55:55;;;;;;;;;;;;;;;29.58;21.18;99851.41;5026281;28;848;-42
2022/04/03 11:58:27;;;;;;;;;;;;;;;29.63;20.97;99861.63;5022350;28;1553;-43
2022/04/03 12:00:52;;;;;;;;;;;;;;;29.75;21.31;99856.28;5032166;28;1358;-43
2022/04/03 12:03:27;;;;;;;;;;;;;;;29.77;21.05;99860.44;5014248;28;1582;-43
2022/04/03 12:06:08;;;;;;;;;;;;;;;29.84;21.00;99879.38;5032476;28;813;-43
2022/04/03 12:08:40;;;;;;;;;;;;;;;30.02;20.92;99864.16;5018253;28;1957;-43
2022/04/03 12:11:15;;;;;;;;;;;;;;;30.13;20.78;99868.03;5020737;28;850;-43
2022/04/03 12:13:41;;;;;;;;;;;;;;;30.18;20.79;99876.31;5020015;28;840;-43
2022/04/03 12:16:06;;;;;;;;;;;;;;;30.28;20.74;99882.06;5019558;28;766;-43
2022/04/03 12:18:46;;;;;;;;;;;;;;;30.00;20.73;99861.69;5026707;28;1371;-43
2022/04/03 12:21:11;;;;;;;;;;;;;;;29.56;20.82;99883.34;5033453;28;817;-43
2022/04/03 12:23:37;;;;;;;;;;;;;;;29.11;21.65;99881.56;5028706;28;826;-43
2022/04/03 12:26:02;;;;;;;;;;;;;;;28.80;21.39;99890.22;5021662;28;1433;-43
2022/04/03 12:28:27;;;;;;;;;;;;;;;28.83;20.95;99883.53;5019547;28;1898;-43
2022/04/03 12:31:02;;;;;;;;;;;;;;;28.91;21.25;99888.69;5029712;28;1224;-43
2022/04/03 12:33:34;;;;;;;;;;;;;;;28.76;21.59;99897.09;5025465;28;1283;-42
2022/04/03 12:36:00;;;;;;;;;;;;;;;28.88;21.55;99891.84;5025473;28;1418;-44
2022/04/03 12:38:28;;;;;;;;;;;;;;;29.09;21.49;99895.31;5037592;28;1298;-43
2022/04/03 12:40:58;;;;;;;;;;;;;;;29.40;21.08;99890.94;5024682;28;1008;-43
2022/04/03 12:43:23;;;;;;;;;;;;;;;29.37;21.29;99890.53;5023436;28;884;-43
2022/04/03 12:45:55;;;;;;;;;;;;;;;29.21;21.46;99898.16;5018574;28;843;-43
2022/04/03 12:48:21;;;;;;;;;;;;;;;29.00;21.51;99904.72;5031840;28;1898;-43
2022/04/03 12:50:47;;;;;;;;;;;;;;;29.02;21.63;99908.91;5026234;28;1333;-44
2022/04/03 12:53:14;;;;;;;;;;;;;;;29.21;21.12;99904.41;5025216;28;841;-43
2022/04/03 12:55:48;;;;;;;;;;;;;;;29.23;21.41;99897.94;5023038;28;1026;-43
2022/04/03 12:58:35;;;;;;;;;;;;;;;29.21;21.54;99898.97;5018662;28;735;-43